sensor_id;sensor_type;location;lat;lon;timestamp;P1;durP1;ratioP1;P2;durP2;ratioP2
22947;SDS011;11640;52.520;13.456;2022-08-21T00:02:32;9.68;;;8.38;;
22947;SDS011;11640;52.520;13.456;2022-08-21T00:07:34;10.15;;;8.32;;
22947;SDS011;11640;52.520;13.456;2022-08-21T00:12:36;12.13;;;8.23;;
22947;SDS011;11640;52.520;13.456;2022-08-21T00:17:38;16.90;;;9.45;;
22947;SDS011;11640;52.520;13.456;2022-08-21T00:22:40;10.70;;;8.38;;
22947;SDS011;11640;52.520;13.456;2022-08-21T00:27:43;10.45;;;9.07;;
22947;SDS011;11640;52.520;13.456;2022-08-21T00:32:45;10.95;;;9.60;;
22947;SDS011;11640;52.520;13.456;2022-08-21T00:37:47;10.07;;;9.07;;
22947;SDS011;11640;52.520;13.456;2022-08-21T00:42:50;10.93;;;9.48;;
22947;SDS011;11640;52.520;13.456;2022-08-21T00:47:54;11.77;;;8.75;;
22947;SDS011;11640;52.520;13.456;2022-08-21T00:52:56;11.00;;;8.13;;
22947;SDS011;11640;52.520;13.456;2022-08-21T00:57:59;11.88;;;8.65;;
22947;SDS011;11640;52.520;13.456;2022-08-21T01:03:04;13.48;;;9.02;;
22947;SDS011;11640;52.520;13.456;2022-08-21T01:08:09;10.75;;;8.32;;
22947;SDS011;11640;52.520;13.456;2022-08-21T01:13:13;9.85;;;8.80;;
22947;SDS011;11640;52.520;13.456;2022-08-21T01:18:18;10.95;;;9.40;;
22947;SDS011;11640;52.520;13.456;2022-08-21T01:23:20;12.52;;;8.80;;
22947;SDS011;11640;52.520;13.456;2022-08-21T01:28:22;11.65;;;9.02;;
22947;SDS011;11640;52.520;13.456;2022-08-21T01:33:25;9.80;;;6.50;;
22947;SDS011;11640;52.520;13.456;2022-08-21T01:38:26;10.52;;;6.60;;
22947;SDS011;11640;52.520;13.456;2022-08-21T01:43:29;9.55;;;6.57;;
22947;SDS011;11640;52.520;13.456;2022-08-21T01:48:40;8.23;;;7.07;;
22947;SDS011;11640;52.520;13.456;2022-08-21T01:53:42;9.52;;;7.57;;
22947;SDS011;11640;52.520;13.456;2022-08-21T01:58:45;10.07;;;7.07;;
22947;SDS011;11640;52.520;13.456;2022-08-21T02:03:48;9.85;;;6.88;;
22947;SDS011;11640;52.520;13.456;2022-08-21T02:08:50;11.75;;;7.13;;
22947;SDS011;11640;52.520;13.456;2022-08-21T02:13:52;9.30;;;6.80;;
22947;SDS011;11640;52.520;13.456;2022-08-21T02:18:54;9.88;;;6.63;;
22947;SDS011;11640;52.520;13.456;2022-08-21T02:23:56;10.77;;;6.55;;
22947;SDS011;11640;52.520;13.456;2022-08-21T02:28:58;11.18;;;7.03;;
22947;SDS011;11640;52.520;13.456;2022-08-21T02:34:00;10.30;;;6.65;;
22947;SDS011;11640;52.520;13.456;2022-08-21T02:39:02;9.85;;;6.28;;
22947;SDS011;11640;52.520;13.456;2022-08-21T02:44:04;10.40;;;5.95;;
22947;SDS011;11640;52.520;13.456;2022-08-21T02:49:06;7.93;;;5.60;;
22947;SDS011;11640;52.520;13.456;2022-08-21T02:54:08;12.35;;;6.32;;
22947;SDS011;11640;52.520;13.456;2022-08-21T02:59:10;7.78;;;4.90;;
22947;SDS011;11640;52.520;13.456;2022-08-21T03:04:11;10.48;;;5.15;;
22947;SDS011;11640;52.520;13.456;2022-08-21T03:09:13;8.70;;;4.90;;
22947;SDS011;11640;52.520;13.456;2022-08-21T03:14:15;7.32;;;4.47;;
22947;SDS011;11640;52.520;13.456;2022-08-21T03:19:17;9.02;;;4.22;;
22947;SDS011;11640;52.520;13.456;2022-08-21T03:24:18;11.13;;;4.45;;
22947;SDS011;11640;52.520;13.456;2022-08-21T03:29:23;6.47;;;4.50;;
22947;SDS011;11640;52.520;13.456;2022-08-21T03:34:24;9.25;;;4.60;;
22947;SDS011;11640;52.520;13.456;2022-08-21T03:39:26;8.32;;;4.60;;
22947;SDS011;11640;52.520;13.456;2022-08-21T03:44:28;7.07;;;4.15;;
22947;SDS011;11640;52.520;13.456;2022-08-21T03:49:31;7.68;;;4.22;;
22947;SDS011;11640;52.520;13.456;2022-08-21T03:54:33;7.32;;;4.30;;
22947;SDS011;11640;52.520;13.456;2022-08-21T03:59:35;8.65;;;4.30;;
22947;SDS011;11640;52.520;13.456;2022-08-21T04:04:38;8.55;;;4.55;;
22947;SDS011;11640;52.520;13.456;2022-08-21T04:09:40;11.85;;;4.07;;
22947;SDS011;11640;52.520;13.456;2022-08-21T04:14:41;7.32;;;4.10;;
22947;SDS011;11640;52.520;13.456;2022-08-21T04:19:43;12.63;;;8.00;;
22947;SDS011;11640;52.520;13.456;2022-08-21T04:24:53;7.72;;;3.78;;
22947;SDS011;11640;52.520;13.456;2022-08-21T04:29:55;7.10;;;3.53;;
22947;SDS011;11640;52.520;13.456;2022-08-21T04:35:00;8.25;;;3.58;;
22947;SDS011;11640;52.520;13.456;2022-08-21T04:40:05;8.00;;;3.40;;
22947;SDS011;11640;52.520;13.456;2022-08-21T04:45:08;8.32;;;3.42;;
22947;SDS011;11640;52.520;13.456;2022-08-21T04:50:10;8.75;;;3.38;;
22947;SDS011;11640;52.520;13.456;2022-08-21T04:55:26;6.93;;;3.30;;
22947;SDS011;11640;52.520;13.456;2022-08-21T05:00:29;7.20;;;3.13;;
22947;SDS011;11640;52.520;13.456;2022-08-21T05:05:31;7.63;;;3.15;;
22947;SDS011;11640;52.520;13.456;2022-08-21T05:10:33;8.23;;;3.28;;
22947;SDS011;11640;52.520;13.456;2022-08-21T05:15:35;8.82;;;3.03;;
22947;SDS011;11640;52.520;13.456;2022-08-21T05:20:38;10.77;;;4.22;;
22947;SDS011;11640;52.520;13.456;2022-08-21T05:25:40;9.70;;;4.07;;
22947;SDS011;11640;52.520;13.456;2022-08-21T05:30:42;10.18;;;3.88;;
22947;SDS011;11640;52.520;13.456;2022-08-21T05:35:45;9.50;;;3.92;;
22947;SDS011;11640;52.520;13.456;2022-08-21T05:40:46;8.88;;;3.05;;
22947;SDS011;11640;52.520;13.456;2022-08-21T05:45:48;6.30;;;2.75;;
22947;SDS011;11640;52.520;13.456;2022-08-21T05:50:51;8.38;;;2.92;;
22947;SDS011;11640;52.520;13.456;2022-08-21T05:55:53;9.85;;;3.10;;
22947;SDS011;11640;52.520;13.456;2022-08-21T06:00:55;8.23;;;3.17;;
22947;SDS011;11640;52.520;13.456;2022-08-21T06:05:59;7.00;;;2.97;;
22947;SDS011;11640;52.520;13.456;2022-08-21T06:11:01;6.70;;;2.95;;
22947;SDS011;11640;52.520;13.456;2022-08-21T06:16:06;8.55;;;3.00;;
22947;SDS011;11640;52.520;13.456;2022-08-21T06:21:10;8.32;;;2.50;;
22947;SDS011;11640;52.520;13.456;2022-08-21T06:26:14;8.88;;;2.75;;
22947;SDS011;11640;52.520;13.456;2022-08-21T06:31:18;5.75;;;2.65;;
22947;SDS011;11640;52.520;13.456;2022-08-21T06:36:24;8.05;;;2.58;;
22947;SDS011;11640;52.520;13.456;2022-08-21T06:41:26;9.77;;;2.92;;
22947;SDS011;11640;52.520;13.456;2022-08-21T06:46:29;6.80;;;2.10;;
22947;SDS011;11640;52.520;13.456;2022-08-21T06:51:31;9.63;;;2.90;;
22947;SDS011;11640;52.520;13.456;2022-08-21T06:56:33;6.82;;;2.75;;
22947;SDS011;11640;52.520;13.456;2022-08-21T07:01:36;7.00;;;2.17;;
22947;SDS011;11640;52.520;13.456;2022-08-21T07:06:38;5.93;;;2.58;;
22947;SDS011;11640;52.520;13.456;2022-08-21T07:11:40;9.23;;;2.80;;
22947;SDS011;11640;52.520;13.456;2022-08-21T07:16:48;6.90;;;2.65;;
22947;SDS011;11640;52.520;13.456;2022-08-21T07:21:50;5.95;;;2.47;;
22947;SDS011;11640;52.520;13.456;2022-08-21T07:26:54;9.57;;;2.47;;
22947;SDS011;11640;52.520;13.456;2022-08-21T07:31:56;6.40;;;2.78;;
22947;SDS011;11640;52.520;13.456;2022-08-21T07:36:58;7.15;;;2.63;;
22947;SDS011;11640;52.520;13.456;2022-08-21T07:42:06;7.63;;;2.30;;
22947;SDS011;11640;52.520;13.456;2022-08-21T07:47:08;6.10;;;2.65;;
22947;SDS011;11640;52.520;13.456;2022-08-21T07:52:10;7.53;;;2.70;;
22947;SDS011;11640;52.520;13.456;2022-08-21T07:57:12;5.65;;;2.35;;
22947;SDS011;11640;52.520;13.456;2022-08-21T08:02:25;7.18;;;2.55;;
22947;SDS011;11640;52.520;13.456;2022-08-21T08:12:30;5.85;;;1.60;;
22947;SDS011;11640;52.520;13.456;2022-08-21T08:17:31;8.07;;;3.63;;
22947;SDS011;11640;52.520;13.456;2022-08-21T08:22:34;5.60;;;2.95;;
22947;SDS011;11640;52.520;13.456;2022-08-21T08:27:38;5.10;;;2.42;;
22947;SDS011;11640;52.520;13.456;2022-08-21T08:32:40;5.70;;;1.75;;
22947;SDS011;11640;52.520;13.456;2022-08-21T08:37:43;6.45;;;1.90;;
22947;SDS011;11640;52.520;13.456;2022-08-21T08:42:52;8.80;;;2.05;;
22947;SDS011;11640;52.520;13.456;2022-08-21T08:48:02;6.28;;;2.90;;
22947;SDS011;11640;52.520;13.456;2022-08-21T08:53:25;7.82;;;2.10;;
22947;SDS011;11640;52.520;13.456;2022-08-21T08:58:36;7.50;;;2.40;;
22947;SDS011;11640;52.520;13.456;2022-08-21T09:03:40;6.30;;;2.30;;
22947;SDS011;11640;52.520;13.456;2022-08-21T09:19:23;6.22;;;2.08;;
22947;SDS011;11640;52.520;13.456;2022-08-21T09:29:56;5.47;;;1.70;;
22947;SDS011;11640;52.520;13.456;2022-08-21T09:35:19;8.05;;;2.10;;
22947;SDS011;11640;52.520;13.456;2022-08-21T09:40:28;5.32;;;1.80;;
22947;SDS011;11640;52.520;13.456;2022-08-21T09:45:34;7.13;;;2.10;;
22947;SDS011;11640;52.520;13.456;2022-08-21T09:50:36;5.93;;;1.95;;
22947;SDS011;11640;52.520;13.456;2022-08-21T09:55:38;5.55;;;2.03;;
22947;SDS011;11640;52.520;13.456;2022-08-21T10:01:15;4.95;;;2.10;;
22947;SDS011;11640;52.520;13.456;2022-08-21T10:06:23;4.95;;;1.80;;
22947;SDS011;11640;52.520;13.456;2022-08-21T10:11:27;6.25;;;2.20;;
22947;SDS011;11640;52.520;13.456;2022-08-21T10:16:43;6.65;;;2.00;;
22947;SDS011;11640;52.520;13.456;2022-08-21T10:27:34;5.85;;;2.20;;
22947;SDS011;11640;52.520;13.456;2022-08-21T10:54:44;4.20;;;1.70;;
22947;SDS011;11640;52.520;13.456;2022-08-21T10:59:57;5.20;;;2.03;;
22947;SDS011;11640;52.520;13.456;2022-08-21T11:15:28;5.75;;;2.20;;
22947;SDS011;11640;52.520;13.456;2022-08-21T11:20:38;5.50;;;2.40;;
22947;SDS011;11640;52.520;13.456;2022-08-21T11:25:52;6.30;;;1.95;;
22947;SDS011;11640;52.520;13.456;2022-08-21T11:31:17;5.63;;;2.03;;
22947;SDS011;11640;52.520;13.456;2022-08-21T11:36:38;5.85;;;2.15;;
22947;SDS011;11640;52.520;13.456;2022-08-21T11:47:12;4.07;;;1.35;;
22947;SDS011;11640;52.520;13.456;2022-08-21T11:52:23;4.43;;;1.50;;
22947;SDS011;11640;52.520;13.456;2022-08-21T12:03:11;2.80;;;1.30;;
22947;SDS011;11640;52.520;13.456;2022-08-21T12:08:41;4.40;;;1.63;;
22947;SDS011;11640;52.520;13.456;2022-08-21T12:19:07;5.65;;;1.50;;
22947;SDS011;11640;52.520;13.456;2022-08-21T12:24:36;2.97;;;1.20;;
22947;SDS011;11640;52.520;13.456;2022-08-21T12:29:48;2.53;;;1.08;;
22947;SDS011;11640;52.520;13.456;2022-08-21T12:40:23;4.38;;;1.30;;
22947;SDS011;11640;52.520;13.456;2022-08-21T12:45:32;3.42;;;1.30;;
22947;SDS011;11640;52.520;13.456;2022-08-21T12:50:44;3.83;;;1.10;;
22947;SDS011;11640;52.520;13.456;2022-08-21T12:55:50;4.03;;;1.50;;
22947;SDS011;11640;52.520;13.456;2022-08-21T13:00:53;3.85;;;1.20;;
22947;SDS011;11640;52.520;13.456;2022-08-21T13:06:19;3.20;;;1.27;;
22947;SDS011;11640;52.520;13.456;2022-08-21T13:11:26;3.22;;;1.75;;
22947;SDS011;11640;52.520;13.456;2022-08-21T13:16:34;2.70;;;1.23;;
22947;SDS011;11640;52.520;13.456;2022-08-21T13:21:40;5.07;;;1.38;;
22947;SDS011;11640;52.520;13.456;2022-08-21T13:26:44;4.28;;;1.25;;
22947;SDS011;11640;52.520;13.456;2022-08-21T13:31:48;3.38;;;1.40;;
22947;SDS011;11640;52.520;13.456;2022-08-21T13:36:55;4.22;;;1.65;;
22947;SDS011;11640;52.520;13.456;2022-08-21T13:42:00;3.72;;;1.48;;
22947;SDS011;11640;52.520;13.456;2022-08-21T13:47:06;4.75;;;1.67;;
22947;SDS011;11640;52.520;13.456;2022-08-21T13:52:28;4.53;;;2.00;;
22947;SDS011;11640;52.520;13.456;2022-08-21T13:57:31;4.43;;;1.75;;
22947;SDS011;11640;52.520;13.456;2022-08-21T14:02:37;5.63;;;2.83;;
22947;SDS011;11640;52.520;13.456;2022-08-21T14:07:41;4.80;;;1.80;;
22947;SDS011;11640;52.520;13.456;2022-08-21T14:12:52;7.30;;;2.30;;
22947;SDS011;11640;52.520;13.456;2022-08-21T14:18:08;3.85;;;2.00;;
22947;SDS011;11640;52.520;13.456;2022-08-21T14:23:24;6.38;;;2.10;;
22947;SDS011;11640;52.520;13.456;2022-08-21T14:28:34;4.55;;;2.10;;
22947;SDS011;11640;52.520;13.456;2022-08-21T14:33:40;4.78;;;2.03;;
22947;SDS011;11640;52.520;13.456;2022-08-21T14:38:43;7.25;;;2.53;;
22947;SDS011;11640;52.520;13.456;2022-08-21T14:43:45;4.65;;;1.80;;
22947;SDS011;11640;52.520;13.456;2022-08-21T14:49:00;5.10;;;2.22;;
22947;SDS011;11640;52.520;13.456;2022-08-21T14:54:01;4.97;;;1.90;;
22947;SDS011;11640;52.520;13.456;2022-08-21T14:59:06;5.82;;;2.42;;
22947;SDS011;11640;52.520;13.456;2022-08-21T15:04:10;6.22;;;2.35;;
22947;SDS011;11640;52.520;13.456;2022-08-21T15:09:12;7.07;;;3.30;;
22947;SDS011;11640;52.520;13.456;2022-08-21T15:14:17;6.57;;;2.72;;
22947;SDS011;11640;52.520;13.456;2022-08-21T15:19:21;8.30;;;2.75;;
22947;SDS011;11640;52.520;13.456;2022-08-21T15:24:24;6.35;;;3.00;;
22947;SDS011;11640;52.520;13.456;2022-08-21T15:29:26;6.47;;;2.90;;
22947;SDS011;11640;52.520;13.456;2022-08-21T15:34:33;6.68;;;2.50;;
22947;SDS011;11640;52.520;13.456;2022-08-21T15:39:35;7.82;;;3.33;;
22947;SDS011;11640;52.520;13.456;2022-08-21T15:44:41;8.25;;;2.25;;
22947;SDS011;11640;52.520;13.456;2022-08-21T15:49:43;6.57;;;2.08;;
22947;SDS011;11640;52.520;13.456;2022-08-21T15:54:46;6.75;;;2.10;;
22947;SDS011;11640;52.520;13.456;2022-08-21T15:59:49;6.30;;;2.42;;
22947;SDS011;11640;52.520;13.456;2022-08-21T16:04:54;5.88;;;2.70;;
22947;SDS011;11640;52.520;13.456;2022-08-21T16:09:57;6.10;;;2.90;;
22947;SDS011;11640;52.520;13.456;2022-08-21T16:14:59;7.53;;;3.70;;
22947;SDS011;11640;52.520;13.456;2022-08-21T16:20:04;6.50;;;3.00;;
22947;SDS011;11640;52.520;13.456;2022-08-21T16:25:09;6.50;;;2.65;;
22947;SDS011;11640;52.520;13.456;2022-08-21T16:30:11;6.22;;;2.10;;
22947;SDS011;11640;52.520;13.456;2022-08-21T16:35:14;7.90;;;2.38;;
22947;SDS011;11640;52.520;13.456;2022-08-21T16:40:17;5.47;;;2.40;;
22947;SDS011;11640;52.520;13.456;2022-08-21T16:45:19;7.65;;;2.70;;
22947;SDS011;11640;52.520;13.456;2022-08-21T16:50:23;5.72;;;2.88;;
22947;SDS011;11640;52.520;13.456;2022-08-21T16:55:25;5.68;;;2.70;;
22947;SDS011;11640;52.520;13.456;2022-08-21T17:00:27;5.22;;;2.42;;
22947;SDS011;11640;52.520;13.456;2022-08-21T17:05:29;7.53;;;3.40;;
22947;SDS011;11640;52.520;13.456;2022-08-21T17:10:30;6.15;;;2.65;;
22947;SDS011;11640;52.520;13.456;2022-08-21T17:15:34;7.43;;;3.38;;
22947;SDS011;11640;52.520;13.456;2022-08-21T17:20:37;5.97;;;2.60;;
22947;SDS011;11640;52.520;13.456;2022-08-21T17:25:40;7.00;;;3.17;;
22947;SDS011;11640;52.520;13.456;2022-08-21T17:30:44;5.20;;;2.63;;
22947;SDS011;11640;52.520;13.456;2022-08-21T17:35:46;6.70;;;2.60;;
22947;SDS011;11640;52.520;13.456;2022-08-21T17:40:48;5.03;;;2.90;;
22947;SDS011;11640;52.520;13.456;2022-08-21T17:45:50;5.20;;;2.92;;
22947;SDS011;11640;52.520;13.456;2022-08-21T17:50:53;7.63;;;2.78;;
22947;SDS011;11640;52.520;13.456;2022-08-21T17:55:55;5.78;;;2.83;;
22947;SDS011;11640;52.520;13.456;2022-08-21T18:00:58;7.53;;;3.20;;
22947;SDS011;11640;52.520;13.456;2022-08-21T18:06:04;8.50;;;4.85;;
22947;SDS011;11640;52.520;13.456;2022-08-21T18:11:06;7.15;;;5.10;;
22947;SDS011;11640;52.520;13.456;2022-08-21T18:16:18;16.30;;;12.98;;
22947;SDS011;11640;52.520;13.456;2022-08-21T18:21:21;8.07;;;4.80;;
22947;SDS011;11640;52.520;13.456;2022-08-21T18:26:27;7.15;;;3.85;;
22947;SDS011;11640;52.520;13.456;2022-08-21T18:31:36;6.85;;;4.22;;
22947;SDS011;11640;52.520;13.456;2022-08-21T18:36:39;17.52;;;12.02;;
22947;SDS011;11640;52.520;13.456;2022-08-21T18:41:41;8.35;;;5.10;;
22947;SDS011;11640;52.520;13.456;2022-08-21T18:46:49;9.15;;;4.85;;
22947;SDS011;11640;52.520;13.456;2022-08-21T18:51:54;9.35;;;5.63;;
22947;SDS011;11640;52.520;13.456;2022-08-21T18:56:57;11.63;;;6.88;;
22947;SDS011;11640;52.520;13.456;2022-08-21T19:01:59;11.10;;;6.35;;
22947;SDS011;11640;52.520;13.456;2022-08-21T19:07:02;11.55;;;6.28;;
22947;SDS011;11640;52.520;13.456;2022-08-21T19:12:04;10.10;;;5.20;;
22947;SDS011;11640;52.520;13.456;2022-08-21T19:17:10;13.23;;;6.55;;
22947;SDS011;11640;52.520;13.456;2022-08-21T19:22:13;11.68;;;6.47;;
22947;SDS011;11640;52.520;13.456;2022-08-21T19:27:17;9.20;;;4.40;;
22947;SDS011;11640;52.520;13.456;2022-08-21T19:32:19;8.95;;;4.43;;
22947;SDS011;11640;52.520;13.456;2022-08-21T19:37:21;9.02;;;5.43;;
22947;SDS011;11640;52.520;13.456;2022-08-21T19:42:23;9.50;;;5.40;;
22947;SDS011;11640;52.520;13.456;2022-08-21T19:47:31;9.35;;;5.18;;
22947;SDS011;11640;52.520;13.456;2022-08-21T19:52:33;10.57;;;5.82;;
22947;SDS011;11640;52.520;13.456;2022-08-21T19:57:36;10.88;;;8.23;;
22947;SDS011;11640;52.520;13.456;2022-08-21T20:02:39;10.95;;;6.50;;
22947;SDS011;11640;52.520;13.456;2022-08-21T20:07:48;8.52;;;4.90;;
22947;SDS011;11640;52.520;13.456;2022-08-21T20:12:51;8.75;;;4.82;;
22947;SDS011;11640;52.520;13.456;2022-08-21T20:17:53;9.27;;;5.20;;
22947;SDS011;11640;52.520;13.456;2022-08-21T20:22:55;9.35;;;5.43;;
22947;SDS011;11640;52.520;13.456;2022-08-21T20:27:59;8.35;;;4.22;;
22947;SDS011;11640;52.520;13.456;2022-08-21T20:33:01;7.55;;;4.50;;
22947;SDS011;11640;52.520;13.456;2022-08-21T20:38:03;8.18;;;4.38;;
22947;SDS011;11640;52.520;13.456;2022-08-21T20:43:05;8.15;;;4.20;;
22947;SDS011;11640;52.520;13.456;2022-08-21T20:48:14;8.25;;;4.07;;
22947;SDS011;11640;52.520;13.456;2022-08-21T20:53:56;6.40;;;3.72;;
22947;SDS011;11640;52.520;13.456;2022-08-21T20:59:07;6.95;;;3.67;;
22947;SDS011;11640;52.520;13.456;2022-08-21T21:04:12;5.97;;;3.47;;
22947;SDS011;11640;52.520;13.456;2022-08-21T21:09:34;6.20;;;3.67;;
22947;SDS011;11640;52.520;13.456;2022-08-21T21:14:43;6.70;;;3.55;;
22947;SDS011;11640;52.520;13.456;2022-08-21T21:19:53;6.82;;;3.75;;
22947;SDS011;11640;52.520;13.456;2022-08-21T21:25:13;7.85;;;4.50;;
22947;SDS011;11640;52.520;13.456;2022-08-21T21:30:44;7.43;;;3.75;;
22947;SDS011;11640;52.520;13.456;2022-08-21T21:36:09;6.40;;;3.67;;
22947;SDS011;11640;52.520;13.456;2022-08-21T21:41:30;8.65;;;5.13;;
22947;SDS011;11640;52.520;13.456;2022-08-21T21:51:59;11.10;;;4.45;;
22947;SDS011;11640;52.520;13.456;2022-08-21T22:19:23;7.43;;;4.45;;
22947;SDS011;11640;52.520;13.456;2022-08-21T22:24:30;6.15;;;3.90;;
22947;SDS011;11640;52.520;13.456;2022-08-21T22:29:51;10.40;;;4.35;;
22947;SDS011;11640;52.520;13.456;2022-08-21T22:34:59;8.43;;;4.38;;
22947;SDS011;11640;52.520;13.456;2022-08-21T22:40:25;6.43;;;3.42;;
22947;SDS011;11640;52.520;13.456;2022-08-21T22:51:01;7.63;;;3.85;;
22947;SDS011;11640;52.520;13.456;2022-08-21T22:56:06;5.90;;;3.03;;
22947;SDS011;11640;52.520;13.456;2022-08-21T23:06:24;8.73;;;3.88;;
22947;SDS011;11640;52.520;13.456;2022-08-21T23:11:42;7.13;;;3.75;;
22947;SDS011;11640;52.520;13.456;2022-08-21T23:17:02;7.93;;;4.43;;
22947;SDS011;11640;52.520;13.456;2022-08-21T23:33:04;6.28;;;3.78;;
22947;SDS011;11640;52.520;13.456;2022-08-21T23:38:46;5.78;;;3.45;;
22947;SDS011;11640;52.520;13.456;2022-08-21T23:49:15;5.35;;;2.90;;
